sensor_id;sensor_type;location;lat;lon;timestamp;P1;durP1;ratioP1;P2;durP2;ratioP2
24090;SDS011;12272;52.426;17.100;2023-02-26T00:02:28;9.70;;;6.73;;
24090;SDS011;12272;52.426;17.100;2023-02-26T00:07:30;3.73;;;2.10;;
24090;SDS011;12272;52.426;17.100;2023-02-26T00:12:33;2.27;;;1.70;;
24090;SDS011;12272;52.426;17.100;2023-02-26T00:17:44;3.60;;;2.23;;
24090;SDS011;12272;52.426;17.100;2023-02-26T00:22:50;6.67;;;5.47;;
24090;SDS011;12272;52.426;17.100;2023-02-26T00:27:53;4.33;;;2.13;;
24090;SDS011;12272;52.426;17.100;2023-02-26T00:32:56;3.20;;;1.43;;
24090;SDS011;12272;52.426;17.100;2023-02-26T00:38:03;3.33;;;1.83;;
24090;SDS011;12272;52.426;17.100;2023-02-26T00:43:08;4.87;;;4.30;;
24090;SDS011;12272;52.426;17.100;2023-02-26T00:59:00;2.20;;;0.90;;
24090;SDS011;12272;52.426;17.100;2023-02-26T01:04:03;8.20;;;6.30;;
24090;SDS011;12272;52.426;17.100;2023-02-26T01:14:09;7.77;;;6.97;;
24090;SDS011;12272;52.426;17.100;2023-02-26T01:24:20;8.87;;;7.63;;
24090;SDS011;12272;52.426;17.100;2023-02-26T01:29:25;1.07;;;0.63;;
24090;SDS011;12272;52.426;17.100;2023-02-26T01:34:49;3.80;;;2.27;;
24090;SDS011;12272;52.426;17.100;2023-02-26T01:45:03;4.80;;;4.30;;
24090;SDS011;12272;52.426;17.100;2023-02-26T01:50:14;4.37;;;3.47;;
24090;SDS011;12272;52.426;17.100;2023-02-26T01:55:21;2.40;;;1.13;;
24090;SDS011;12272;52.426;17.100;2023-02-26T02:00:28;2.23;;;1.23;;
24090;SDS011;12272;52.426;17.100;2023-02-26T02:05:54;1.20;;;0.83;;
24090;SDS011;12272;52.426;17.100;2023-02-26T02:11:05;4.17;;;3.87;;
24090;SDS011;12272;52.426;17.100;2023-02-26T02:32:24;2.47;;;0.87;;
24090;SDS011;12272;52.426;17.100;2023-02-26T02:37:38;1.80;;;1.40;;
24090;SDS011;12272;52.426;17.100;2023-02-26T02:42:43;3.13;;;2.27;;
24090;SDS011;12272;52.426;17.100;2023-02-26T02:47:51;5.83;;;4.93;;
24090;SDS011;12272;52.426;17.100;2023-02-26T02:53:07;4.23;;;3.83;;
24090;SDS011;12272;52.426;17.100;2023-02-26T02:58:39;4.30;;;3.10;;
24090;SDS011;12272;52.426;17.100;2023-02-26T03:08:57;1.70;;;0.80;;
24090;SDS011;12272;52.426;17.100;2023-02-26T03:14:01;4.53;;;4.13;;
24090;SDS011;12272;52.426;17.100;2023-02-26T03:19:17;2.60;;;1.53;;
24090;SDS011;12272;52.426;17.100;2023-02-26T03:24:36;4.20;;;3.73;;
24090;SDS011;12272;52.426;17.100;2023-02-26T03:35:17;2.00;;;1.30;;
24090;SDS011;12272;52.426;17.100;2023-02-26T03:40:31;4.30;;;3.90;;
24090;SDS011;12272;52.426;17.100;2023-02-26T03:45:42;2.07;;;0.97;;
24090;SDS011;12272;52.426;17.100;2023-02-26T03:50:49;2.03;;;1.17;;
24090;SDS011;12272;52.426;17.100;2023-02-26T03:56:12;2.83;;;1.93;;
24090;SDS011;12272;52.426;17.100;2023-02-26T04:01:35;4.67;;;1.70;;
24090;SDS011;12272;52.426;17.100;2023-02-26T04:06:58;2.00;;;1.23;;
24090;SDS011;12272;52.426;17.100;2023-02-26T04:12:02;3.33;;;2.73;;
24090;SDS011;12272;52.426;17.100;2023-02-26T04:17:06;2.97;;;1.10;;
24090;SDS011;12272;52.426;17.100;2023-02-26T04:22:09;1.63;;;0.90;;
24090;SDS011;12272;52.426;17.100;2023-02-26T04:27:12;2.53;;;1.20;;
24090;SDS011;12272;52.426;17.100;2023-02-26T04:32:15;2.07;;;1.40;;
24090;SDS011;12272;52.426;17.100;2023-02-26T04:37:17;2.70;;;1.97;;
24090;SDS011;12272;52.426;17.100;2023-02-26T04:42:21;3.57;;;1.83;;
24090;SDS011;12272;52.426;17.100;2023-02-26T04:47:23;1.93;;;1.10;;
24090;SDS011;12272;52.426;17.100;2023-02-26T04:52:26;3.80;;;3.33;;
24090;SDS011;12272;52.426;17.100;2023-02-26T04:57:29;4.50;;;2.90;;
24090;SDS011;12272;52.426;17.100;2023-02-26T05:02:32;4.23;;;1.10;;
24090;SDS011;12272;52.426;17.100;2023-02-26T05:07:36;4.87;;;2.90;;
24090;SDS011;12272;52.426;17.100;2023-02-26T05:12:39;7.83;;;6.17;;
24090;SDS011;12272;52.426;17.100;2023-02-26T05:17:42;1.00;;;0.70;;
24090;SDS011;12272;52.426;17.100;2023-02-26T05:22:44;1.20;;;0.90;;
24090;SDS011;12272;52.426;17.100;2023-02-26T05:27:47;3.47;;;1.70;;
24090;SDS011;12272;52.426;17.100;2023-02-26T05:32:49;4.50;;;4.10;;
24090;SDS011;12272;52.426;17.100;2023-02-26T05:37:52;3.03;;;1.20;;
24090;SDS011;12272;52.426;17.100;2023-02-26T05:42:54;2.10;;;1.80;;
24090;SDS011;12272;52.426;17.100;2023-02-26T05:47:57;2.47;;;1.80;;
24090;SDS011;12272;52.426;17.100;2023-02-26T05:52:59;4.40;;;3.17;;
24090;SDS011;12272;52.426;17.100;2023-02-26T05:58:02;6.17;;;5.33;;
24090;SDS011;12272;52.426;17.100;2023-02-26T06:03:04;2.63;;;2.20;;
24090;SDS011;12272;52.426;17.100;2023-02-26T06:08:07;2.03;;;1.00;;
24090;SDS011;12272;52.426;17.100;2023-02-26T06:13:10;3.63;;;3.17;;
24090;SDS011;12272;52.426;17.100;2023-02-26T06:18:12;2.07;;;0.90;;
24090;SDS011;12272;52.426;17.100;2023-02-26T06:23:15;3.77;;;3.13;;
24090;SDS011;12272;52.426;17.100;2023-02-26T06:28:18;1.57;;;0.70;;
24090;SDS011;12272;52.426;17.100;2023-02-26T06:33:21;5.60;;;3.63;;
24090;SDS011;12272;52.426;17.100;2023-02-26T06:38:24;3.23;;;2.90;;
24090;SDS011;12272;52.426;17.100;2023-02-26T06:43:29;4.33;;;3.93;;
24090;SDS011;12272;52.426;17.100;2023-02-26T06:48:32;1.73;;;1.00;;
24090;SDS011;12272;52.426;17.100;2023-02-26T06:53:34;2.07;;;1.00;;
24090;SDS011;12272;52.426;17.100;2023-02-26T06:58:37;1.73;;;1.50;;
24090;SDS011;12272;52.426;17.100;2023-02-26T07:03:39;1.87;;;1.20;;
24090;SDS011;12272;52.426;17.100;2023-02-26T07:08:42;2.30;;;1.20;;
24090;SDS011;12272;52.426;17.100;2023-02-26T07:13:45;2.27;;;0.87;;
24090;SDS011;12272;52.426;17.100;2023-02-26T07:18:47;4.07;;;1.40;;
24090;SDS011;12272;52.426;17.100;2023-02-26T07:23:50;1.70;;;1.20;;
24090;SDS011;12272;52.426;17.100;2023-02-26T07:28:52;1.50;;;1.10;;
24090;SDS011;12272;52.426;17.100;2023-02-26T07:33:55;2.27;;;1.73;;
24090;SDS011;12272;52.426;17.100;2023-02-26T07:38:58;3.63;;;1.80;;
24090;SDS011;12272;52.426;17.100;2023-02-26T07:44:00;4.93;;;2.03;;
24090;SDS011;12272;52.426;17.100;2023-02-26T07:49:03;3.70;;;1.63;;
24090;SDS011;12272;52.426;17.100;2023-02-26T07:54:05;2.50;;;2.10;;
24090;SDS011;12272;52.426;17.100;2023-02-26T07:59:08;6.03;;;3.87;;
24090;SDS011;12272;52.426;17.100;2023-02-26T08:04:11;10.23;;;7.50;;
24090;SDS011;12272;52.426;17.100;2023-02-26T08:09:14;18.83;;;6.40;;
24090;SDS011;12272;52.426;17.100;2023-02-26T08:14:16;15.93;;;5.47;;
24090;SDS011;12272;52.426;17.100;2023-02-26T08:19:19;5.93;;;3.33;;
24090;SDS011;12272;52.426;17.100;2023-02-26T08:24:21;10.13;;;3.87;;
24090;SDS011;12272;52.426;17.100;2023-02-26T08:29:25;9.97;;;3.70;;
24090;SDS011;12272;52.426;17.100;2023-02-26T08:34:28;6.67;;;3.33;;
24090;SDS011;12272;52.426;17.100;2023-02-26T08:39:31;6.77;;;2.80;;
24090;SDS011;12272;52.426;17.100;2023-02-26T08:44:36;8.93;;;3.60;;
24090;SDS011;12272;52.426;17.100;2023-02-26T08:49:38;4.30;;;2.20;;
24090;SDS011;12272;52.426;17.100;2023-02-26T08:54:40;19.40;;;8.63;;
24090;SDS011;12272;52.426;17.100;2023-02-26T08:59:43;10.07;;;4.30;;
24090;SDS011;12272;52.426;17.100;2023-02-26T09:04:46;23.20;;;19.43;;
24090;SDS011;12272;52.426;17.100;2023-02-26T09:09:48;4.40;;;2.73;;
24090;SDS011;12272;52.426;17.100;2023-02-26T09:14:52;5.40;;;2.67;;
24090;SDS011;12272;52.426;17.100;2023-02-26T09:19:54;4.70;;;1.87;;
24090;SDS011;12272;52.426;17.100;2023-02-26T09:24:57;5.07;;;1.27;;
24090;SDS011;12272;52.426;17.100;2023-02-26T09:30:00;4.67;;;2.67;;
24090;SDS011;12272;52.426;17.100;2023-02-26T09:35:04;3.73;;;1.67;;
24090;SDS011;12272;52.426;17.100;2023-02-26T09:40:07;2.97;;;1.90;;
24090;SDS011;12272;52.426;17.100;2023-02-26T09:45:19;6.17;;;1.63;;
24090;SDS011;12272;52.426;17.100;2023-02-26T09:50:39;7.23;;;3.83;;
24090;SDS011;12272;52.426;17.100;2023-02-26T09:55:49;2.87;;;1.47;;
24090;SDS011;12272;52.426;17.100;2023-02-26T10:17:06;5.13;;;3.00;;
24090;SDS011;12272;52.426;17.100;2023-02-26T10:22:35;4.20;;;1.50;;
24090;SDS011;12272;52.426;17.100;2023-02-26T10:38:24;4.50;;;1.57;;
24090;SDS011;12272;52.426;17.100;2023-02-26T10:59:17;6.17;;;2.03;;
24090;SDS011;12272;52.426;17.100;2023-02-26T11:04:21;4.97;;;1.17;;
24090;SDS011;12272;52.426;17.100;2023-02-26T11:09:37;10.17;;;1.53;;
24090;SDS011;12272;52.426;17.100;2023-02-26T11:14:44;2.73;;;1.33;;
24090;SDS011;12272;52.426;17.100;2023-02-26T11:19:50;3.43;;;1.00;;
24090;SDS011;12272;52.426;17.100;2023-02-26T11:24:57;3.90;;;0.93;;
24090;SDS011;12272;52.426;17.100;2023-02-26T11:30:05;6.27;;;2.57;;
24090;SDS011;12272;52.426;17.100;2023-02-26T11:35:17;7.70;;;3.50;;
24090;SDS011;12272;52.426;17.100;2023-02-26T11:40:33;3.77;;;1.50;;
24090;SDS011;12272;52.426;17.100;2023-02-26T11:45:41;6.13;;;1.40;;
24090;SDS011;12272;52.426;17.100;2023-02-26T11:50:46;2.90;;;1.03;;
24090;SDS011;12272;52.426;17.100;2023-02-26T11:55:58;3.10;;;1.30;;
24090;SDS011;12272;52.426;17.100;2023-02-26T12:01:03;3.23;;;0.80;;
24090;SDS011;12272;52.426;17.100;2023-02-26T12:06:25;3.10;;;1.17;;
24090;SDS011;12272;52.426;17.100;2023-02-26T12:11:47;3.87;;;1.40;;
24090;SDS011;12272;52.426;17.100;2023-02-26T12:33:06;4.43;;;1.57;;
24090;SDS011;12272;52.426;17.100;2023-02-26T12:38:29;3.70;;;1.67;;
24090;SDS011;12272;52.426;17.100;2023-02-26T12:43:49;6.27;;;1.13;;
24090;SDS011;12272;52.426;17.100;2023-02-26T12:59:38;5.40;;;2.00;;
24090;SDS011;12272;52.426;17.100;2023-02-26T13:10:10;3.00;;;1.80;;
24090;SDS011;12272;52.426;17.100;2023-02-26T13:20:43;3.13;;;1.97;;
24090;SDS011;12272;52.426;17.100;2023-02-26T13:25:58;6.43;;;1.30;;
24090;SDS011;12272;52.426;17.100;2023-02-26T13:31:04;3.80;;;2.93;;
24090;SDS011;12272;52.426;17.100;2023-02-26T13:36:21;4.40;;;1.63;;
24090;SDS011;12272;52.426;17.100;2023-02-26T13:52:24;3.80;;;1.20;;
24090;SDS011;12272;52.426;17.100;2023-02-26T13:57:47;3.20;;;1.33;;
24090;SDS011;12272;52.426;17.100;2023-02-26T14:13:40;5.03;;;1.57;;
24090;SDS011;12272;52.426;17.100;2023-02-26T14:23:48;6.03;;;3.20;;
24090;SDS011;12272;52.426;17.100;2023-02-26T14:28:56;5.17;;;3.43;;
24090;SDS011;12272;52.426;17.100;2023-02-26T14:34:12;3.03;;;1.60;;
24090;SDS011;12272;52.426;17.100;2023-02-26T14:39:28;4.73;;;1.43;;
24090;SDS011;12272;52.426;17.100;2023-02-26T14:44:33;2.77;;;1.67;;
24090;SDS011;12272;52.426;17.100;2023-02-26T14:49:44;4.40;;;3.00;;
24090;SDS011;12272;52.426;17.100;2023-02-26T14:54:55;3.20;;;1.47;;
24090;SDS011;12272;52.426;17.100;2023-02-26T15:16:30;3.47;;;1.70;;
24090;SDS011;12272;52.426;17.100;2023-02-26T15:27:00;3.33;;;0.80;;
24090;SDS011;12272;52.426;17.100;2023-02-26T15:32:06;2.90;;;0.53;;
24090;SDS011;12272;52.426;17.100;2023-02-26T15:37:28;3.10;;;1.07;;
24090;SDS011;12272;52.426;17.100;2023-02-26T15:42:35;1.73;;;0.50;;
24090;SDS011;12272;52.426;17.100;2023-02-26T15:47:40;1.67;;;0.63;;
24090;SDS011;12272;52.426;17.100;2023-02-26T15:52:42;1.27;;;0.70;;
24090;SDS011;12272;52.426;17.100;2023-02-26T15:57:56;3.07;;;0.90;;
24090;SDS011;12272;52.426;17.100;2023-02-26T16:03:00;2.17;;;1.13;;
24090;SDS011;12272;52.426;17.100;2023-02-26T16:08:02;4.50;;;3.10;;
24090;SDS011;12272;52.426;17.100;2023-02-26T16:13:05;4.90;;;2.77;;
24090;SDS011;12272;52.426;17.100;2023-02-26T16:18:15;5.40;;;2.27;;
24090;SDS011;12272;52.426;17.100;2023-02-26T16:23:20;5.57;;;2.00;;
24090;SDS011;12272;52.426;17.100;2023-02-26T16:28:33;5.60;;;3.13;;
24090;SDS011;12272;52.426;17.100;2023-02-26T16:34:19;6.80;;;3.13;;
24090;SDS011;12272;52.426;17.100;2023-02-26T16:39:29;4.90;;;2.30;;
24090;SDS011;12272;52.426;17.100;2023-02-26T16:49:35;4.33;;;2.10;;
24090;SDS011;12272;52.426;17.100;2023-02-26T16:54:41;7.10;;;1.80;;
24090;SDS011;12272;52.426;17.100;2023-02-26T16:59:55;3.13;;;1.63;;
24090;SDS011;12272;52.426;17.100;2023-02-26T17:05:09;4.07;;;1.80;;
24090;SDS011;12272;52.426;17.100;2023-02-26T17:15:34;3.27;;;1.37;;
24090;SDS011;12272;52.426;17.100;2023-02-26T17:20:39;2.23;;;1.83;;
24090;SDS011;12272;52.426;17.100;2023-02-26T17:25:43;3.30;;;1.47;;
24090;SDS011;12272;52.426;17.100;2023-02-26T17:30:48;5.60;;;2.77;;
24090;SDS011;12272;52.426;17.100;2023-02-26T17:35:51;6.50;;;2.17;;
24090;SDS011;12272;52.426;17.100;2023-02-26T17:40:57;8.53;;;4.60;;
24090;SDS011;12272;52.426;17.100;2023-02-26T17:46:00;3.77;;;2.20;;
24090;SDS011;12272;52.426;17.100;2023-02-26T17:51:02;11.13;;;6.07;;
24090;SDS011;12272;52.426;17.100;2023-02-26T17:56:09;10.63;;;6.17;;
24090;SDS011;12272;52.426;17.100;2023-02-26T18:01:15;10.43;;;5.13;;
24090;SDS011;12272;52.426;17.100;2023-02-26T18:06:18;6.50;;;3.43;;
24090;SDS011;12272;52.426;17.100;2023-02-26T18:11:22;9.93;;;5.50;;
24090;SDS011;12272;52.426;17.100;2023-02-26T18:16:31;6.10;;;2.80;;
24090;SDS011;12272;52.426;17.100;2023-02-26T18:21:35;5.60;;;3.17;;
24090;SDS011;12272;52.426;17.100;2023-02-26T18:26:38;4.20;;;2.13;;
24090;SDS011;12272;52.426;17.100;2023-02-26T18:31:40;4.53;;;2.20;;
24090;SDS011;12272;52.426;17.100;2023-02-26T18:36:43;5.20;;;2.70;;
24090;SDS011;12272;52.426;17.100;2023-02-26T18:41:46;4.47;;;2.87;;
24090;SDS011;12272;52.426;17.100;2023-02-26T18:46:48;10.63;;;4.40;;
24090;SDS011;12272;52.426;17.100;2023-02-26T18:51:51;11.50;;;6.30;;
24090;SDS011;12272;52.426;17.100;2023-02-26T18:56:55;31.93;;;15.37;;
24090;SDS011;12272;52.426;17.100;2023-02-26T19:01:58;22.50;;;12.80;;
24090;SDS011;12272;52.426;17.100;2023-02-26T19:07:01;32.77;;;16.67;;
24090;SDS011;12272;52.426;17.100;2023-02-26T19:12:04;18.00;;;9.20;;
24090;SDS011;12272;52.426;17.100;2023-02-26T19:17:11;25.60;;;14.83;;
24090;SDS011;12272;52.426;17.100;2023-02-26T19:22:14;32.57;;;16.03;;
24090;SDS011;12272;52.426;17.100;2023-02-26T19:27:17;28.37;;;15.97;;
24090;SDS011;12272;52.426;17.100;2023-02-26T19:32:20;15.63;;;7.40;;
24090;SDS011;12272;52.426;17.100;2023-02-26T19:37:22;17.83;;;7.57;;
24090;SDS011;12272;52.426;17.100;2023-02-26T19:42:25;14.33;;;7.60;;
24090;SDS011;12272;52.426;17.100;2023-02-26T19:47:29;12.17;;;5.80;;
24090;SDS011;12272;52.426;17.100;2023-02-26T19:52:31;14.93;;;6.77;;
24090;SDS011;12272;52.426;17.100;2023-02-26T19:57:34;13.10;;;7.07;;
24090;SDS011;12272;52.426;17.100;2023-02-26T20:02:37;4.77;;;3.37;;
24090;SDS011;12272;52.426;17.100;2023-02-26T20:07:40;6.30;;;3.83;;
24090;SDS011;12272;52.426;17.100;2023-02-26T20:12:44;3.63;;;2.40;;
24090;SDS011;12272;52.426;17.100;2023-02-26T20:17:46;3.73;;;2.43;;
24090;SDS011;12272;52.426;17.100;2023-02-26T20:22:49;3.67;;;1.80;;
24090;SDS011;12272;52.426;17.100;2023-02-26T20:27:52;5.17;;;2.77;;
24090;SDS011;12272;52.426;17.100;2023-02-26T20:32:54;6.53;;;3.87;;
24090;SDS011;12272;52.426;17.100;2023-02-26T20:37:57;7.43;;;3.63;;
24090;SDS011;12272;52.426;17.100;2023-02-26T20:42:59;4.50;;;3.03;;
24090;SDS011;12272;52.426;17.100;2023-02-26T20:48:02;3.83;;;2.13;;
24090;SDS011;12272;52.426;17.100;2023-02-26T20:53:06;9.97;;;4.80;;
24090;SDS011;12272;52.426;17.100;2023-02-26T20:58:09;15.40;;;6.80;;
24090;SDS011;12272;52.426;17.100;2023-02-26T21:03:11;10.97;;;4.93;;
24090;SDS011;12272;52.426;17.100;2023-02-26T21:08:14;12.13;;;5.43;;
24090;SDS011;12272;52.426;17.100;2023-02-26T21:13:17;27.90;;;11.03;;
24090;SDS011;12272;52.426;17.100;2023-02-26T21:18:19;16.27;;;8.00;;
24090;SDS011;12272;52.426;17.100;2023-02-26T21:23:22;11.10;;;5.90;;
24090;SDS011;12272;52.426;17.100;2023-02-26T21:28:24;11.07;;;5.53;;
24090;SDS011;12272;52.426;17.100;2023-02-26T21:33:27;8.07;;;3.93;;
24090;SDS011;12272;52.426;17.100;2023-02-26T21:38:30;6.43;;;2.70;;
24090;SDS011;12272;52.426;17.100;2023-02-26T21:43:32;6.03;;;3.80;;
24090;SDS011;12272;52.426;17.100;2023-02-26T21:48:35;5.17;;;3.00;;
24090;SDS011;12272;52.426;17.100;2023-02-26T21:53:37;7.60;;;4.00;;
24090;SDS011;12272;52.426;17.100;2023-02-26T21:58:40;4.63;;;2.80;;
24090;SDS011;12272;52.426;17.100;2023-02-26T22:03:43;40.10;;;18.17;;
24090;SDS011;12272;52.426;17.100;2023-02-26T22:08:46;75.70;;;31.63;;
24090;SDS011;12272;52.426;17.100;2023-02-26T22:13:48;38.17;;;12.30;;
24090;SDS011;12272;52.426;17.100;2023-02-26T22:18:51;32.67;;;10.23;;
24090;SDS011;12272;52.426;17.100;2023-02-26T22:23:53;31.13;;;9.33;;
24090;SDS011;12272;52.426;17.100;2023-02-26T22:28:56;37.10;;;12.43;;
24090;SDS011;12272;52.426;17.100;2023-02-26T22:34:01;12.03;;;6.97;;
24090;SDS011;12272;52.426;17.100;2023-02-26T22:39:04;13.33;;;6.10;;
24090;SDS011;12272;52.426;17.100;2023-02-26T22:44:06;24.63;;;7.73;;
24090;SDS011;12272;52.426;17.100;2023-02-26T22:49:09;26.37;;;7.63;;
24090;SDS011;12272;52.426;17.100;2023-02-26T22:54:12;10.03;;;3.73;;
24090;SDS011;12272;52.426;17.100;2023-02-26T22:59:14;13.70;;;5.13;;
24090;SDS011;12272;52.426;17.100;2023-02-26T23:04:17;14.07;;;6.93;;
24090;SDS011;12272;52.426;17.100;2023-02-26T23:09:19;14.43;;;6.27;;
24090;SDS011;12272;52.426;17.100;2023-02-26T23:14:22;10.73;;;5.83;;
24090;SDS011;12272;52.426;17.100;2023-02-26T23:19:24;14.30;;;5.07;;
24090;SDS011;12272;52.426;17.100;2023-02-26T23:24:27;8.23;;;3.60;;
24090;SDS011;12272;52.426;17.100;2023-02-26T23:29:30;11.57;;;4.90;;
24090;SDS011;12272;52.426;17.100;2023-02-26T23:34:32;11.33;;;5.37;;
24090;SDS011;12272;52.426;17.100;2023-02-26T23:39:35;6.53;;;3.70;;
24090;SDS011;12272;52.426;17.100;2023-02-26T23:44:37;12.37;;;5.03;;
24090;SDS011;12272;52.426;17.100;2023-02-26T23:49:40;10.53;;;5.10;;
24090;SDS011;12272;52.426;17.100;2023-02-26T23:54:42;8.10;;;4.20;;
24090;SDS011;12272;52.426;17.100;2023-02-26T23:59:45;10.23;;;4.60;;
